Time;durP1;ratioP1;P1;durP2;ratioP2;P2;SDS_P1;SDS_P2;PMS_P1;PMS_P2;Temp;Humidity;BMP_temperature;BMP_pressure;BME280_temperature;BME280_humidity;BME280_pressure;Samples;Min_cycle;Max_cycle;Signal;HPM_P1;HPM_P2
2022/07/20 00:01:12;;;;;;;3.58;1.98;;;;;;;16.73;62.52;95224.44;5066879;28;20311;-74
2022/07/20 00:03:40;;;;;;;5.28;1.60;;;;;;;16.68;62.75;95224.69;5063440;28;20237;-74
2022/07/20 00:06:08;;;;;;;4.88;1.80;;;;;;;16.65;62.95;95219.94;5060301;28;20207;-74
2022/07/20 00:11:22;;;;;;;5.18;1.75;;;;;;;16.76;62.62;95210.06;5066992;28;20203;-74
2022/07/20 00:13:49;;;;;;;4.72;1.83;;;;;;;16.67;63.67;95207.47;5053820;28;20200;-73
2022/07/20 00:16:16;;;;;;;5.10;1.95;;;;;;;16.61;63.77;95197.13;5065793;28;20680;-73
2022/07/20 00:18:42;;;;;;;3.53;1.40;;;;;;;16.60;63.90;95203.75;5052956;28;20235;-73
2022/07/20 00:21:11;;;;;;;2.33;1.63;;;;;;;16.57;63.85;95198.97;5065310;28;20584;-73
2022/07/20 00:23:37;;;;;;;3.60;1.50;;;;;;;16.49;63.73;95197.19;5066103;28;20230;-73
2022/07/20 00:26:04;;;;;;;2.97;1.90;;;;;;;16.35;63.86;95200.34;5060116;28;20292;-73
2022/07/20 00:28:31;;;;;;;3.92;1.70;;;;;;;16.32;64.27;95195.59;5057890;28;20659;-73
2022/07/20 00:30:58;;;;;;;3.88;1.95;;;;;;;16.34;63.78;95194.09;5064627;28;20195;-74
2022/07/20 00:33:25;;;;;;;3.55;1.92;;;;;;;16.48;63.01;95187.41;5066233;28;20203;-74
2022/07/20 00:35:52;;;;;;;5.47;1.60;;;;;;;16.59;62.81;95183.00;5053085;28;20261;-73
2022/07/20 00:38:20;;;;;;;7.95;1.80;;;;;;;16.57;62.69;95185.28;5067235;28;20203;-73
2022/07/20 00:40:47;;;;;;;7.53;1.83;;;;;;;16.62;62.66;95187.78;5061145;28;20206;-73
2022/07/20 00:43:14;;;;;;;3.30;1.63;;;;;;;16.46;63.85;95200.63;5058491;28;20243;-73
2022/07/20 00:45:41;;;;;;;5.35;2.22;;;;;;;16.39;63.88;95195.00;5073366;28;20203;-75
2022/07/20 00:48:07;;;;;;;1.85;1.40;;;;;;;16.33;64.70;95197.97;5059155;28;20273;-74
2022/07/20 00:50:35;;;;;;;5.85;1.88;;;;;;;16.28;64.62;95203.69;5064581;28;20320;-74
2022/07/20 00:53:02;;;;;;;3.05;1.73;;;;;;;16.32;63.75;95201.03;5065582;28;20256;-73
2022/07/20 00:55:30;;;;;;;1.88;1.42;;;;;;;16.37;63.78;95194.53;5060688;28;20233;-73
2022/07/20 00:57:57;;;;;;;1.85;1.52;;;;;;;16.34;64.32;95202.28;5058999;28;20212;-73
2022/07/20 01:00:24;;;;;;;4.20;1.98;;;;;;;16.39;64.55;95200.47;5063546;28;20200;-73
2022/07/20 01:02:51;;;;;;;2.67;1.77;;;;;;;16.44;64.79;95192.78;5066499;28;20226;-74
2022/07/20 01:05:18;;;;;;;5.82;1.80;;;;;;;16.46;64.42;95200.63;5061042;28;20199;-74
2022/07/20 01:07:46;;;;;;;3.08;1.95;;;;;;;16.13;65.65;95204.44;5056920;28;20616;-72
2022/07/20 01:10:15;;;;;;;3.67;2.03;;;;;;;16.11;66.28;95195.81;5061386;28;20199;-75
2022/07/20 01:12:47;;;;;;;5.07;2.10;;;;;;;15.96;66.52;95202.03;5056142;28;20223;-72
2022/07/20 01:15:14;;;;;;;2.58;1.63;;;;;;;15.92;66.62;95201.91;5062825;28;20248;-73
2022/07/20 01:17:41;;;;;;;1.98;1.38;;;;;;;15.86;67.07;95199.75;5058083;28;20223;-73
2022/07/20 01:20:14;;;;;;;3.63;2.10;;;;;;;15.68;67.28;95198.47;5061747;28;20547;-73
2022/07/20 01:22:46;;;;;;;5.97;2.00;;;;;;;15.68;67.61;95193.00;5065517;28;20211;-73
2022/07/20 01:25:12;;;;;;;2.65;1.70;;;;;;;15.55;68.55;95198.50;5063609;28;20590;-73
2022/07/20 01:27:39;;;;;;;2.22;1.45;;;;;;;15.38;69.04;95204.19;5058640;28;20194;-73
2022/07/20 01:30:07;;;;;;;3.10;1.70;;;;;;;15.32;68.74;95202.81;5059118;28;20203;-74
2022/07/20 01:32:34;;;;;;;2.17;1.63;;;;;;;15.22;68.96;95200.56;5065100;28;20207;-73
2022/07/20 01:35:01;;;;;;;2.40;1.73;;;;;;;15.27;68.73;95192.16;5064866;28;20199;-74
2022/07/20 01:37:29;;;;;;;3.60;1.92;;;;;;;15.34;68.17;95195.06;5059129;28;20205;-74
2022/07/20 01:39:58;;;;;;;5.95;1.83;;;;;;;15.37;67.45;95188.13;5057466;28;20211;-73
2022/07/20 01:42:26;;;;;;;2.17;1.70;;;;;;;15.51;66.70;95189.38;5062531;28;20200;-73
2022/07/20 01:44:53;;;;;;;3.55;1.73;;;;;;;15.72;65.54;95188.41;5064093;28;20203;-74
2022/07/20 01:47:20;;;;;;;3.75;1.90;;;;;;;15.80;66.18;95190.22;5051589;28;20284;-73
2022/07/20 01:49:47;;;;;;;6.78;2.40;;;;;;;15.85;65.80;95187.25;5065070;28;20203;-74
2022/07/20 01:52:13;;;;;;;3.65;1.70;;;;;;;15.84;66.56;95185.66;5060137;28;20211;-74
2022/07/20 01:54:40;;;;;;;2.42;1.50;;;;;;;15.83;66.39;95195.00;5057792;28;20609;-74
2022/07/20 01:57:09;;;;;;;2.85;1.73;;;;;;;15.86;66.17;95195.09;5062685;28;20204;-74
2022/07/20 01:59:35;;;;;;;2.88;1.63;;;;;;;15.79;66.47;95199.56;5065045;28;20562;-74
2022/07/20 02:02:02;;;;;;;3.75;1.85;;;;;;;15.74;66.50;95197.88;5059901;28;20202;-74
2022/07/20 02:04:29;;;;;;;5.30;1.88;;;;;;;15.66;66.57;95201.53;5057643;28;20600;-73
2022/07/20 02:06:56;;;;;;;5.22;1.75;;;;;;;15.76;66.55;95200.25;5062083;28;20199;-74
2022/07/20 02:09:23;;;;;;;2.63;1.60;;;;;;;15.69;66.91;95203.59;5065130;28;20199;-74
2022/07/20 02:11:50;;;;;;;2.58;1.55;;;;;;;15.70;66.44;95201.66;5051275;28;20204;-73
2022/07/20 02:14:18;;;;;;;2.33;1.75;;;;;;;15.70;66.53;95212.56;5064802;28;20215;-74
2022/07/20 02:16:45;;;;;;;2.67;1.50;;;;;;;15.63;67.44;95210.41;5060909;28;20355;-74
2022/07/20 02:19:14;;;;;;;2.05;1.55;;;;;;;15.52;67.61;95212.81;5067667;28;20690;-73
2022/07/20 02:21:41;;;;;;;1.90;1.60;;;;;;;15.48;67.71;95211.91;5050932;28;20203;-74
2022/07/20 02:24:09;;;;;;;3.95;1.80;;;;;;;15.47;67.90;95214.97;5063882;28;20228;-73
2022/07/20 02:26:36;;;;;;;5.75;1.92;;;;;;;15.47;67.46;95213.03;5061006;28;20245;-73
2022/07/20 02:29:03;;;;;;;2.13;1.40;;;;;;;15.43;67.43;95217.59;5057046;28;20214;-73
2022/07/20 02:31:32;;;;;;;3.45;1.63;;;;;;;15.46;67.06;95213.38;5059800;28;20214;-74
2022/07/20 02:33:59;;;;;;;1.42;1.15;;;;;;;15.48;67.62;95211.09;5054590;28;20203;-73
2022/07/20 02:36:26;;;;;;;4.07;1.88;;;;;;;15.40;67.49;95207.38;5058479;28;20203;-73
2022/07/20 02:38:53;;;;;;;2.67;1.70;;;;;;;15.23;68.90;95205.69;5063104;28;20654;-75
2022/07/20 02:41:20;;;;;;;2.58;1.42;;;;;;;15.21;68.50;95207.16;5062557;28;20253;-73
2022/07/20 02:43:47;;;;;;;1.52;1.42;;;;;;;15.26;67.71;95209.66;5056655;28;20711;-74
2022/07/20 02:46:14;;;;;;;4.95;1.75;;;;;;;15.32;67.61;95211.00;5070592;28;20222;-73
2022/07/20 02:48:42;;;;;;;3.95;1.83;;;;;;;15.26;67.48;95220.56;5057157;28;20605;-73
2022/07/20 02:51:09;;;;;;;1.90;1.35;;;;;;;15.16;67.42;95215.59;5056932;28;20663;-73
2022/07/20 02:53:35;;;;;;;9.30;1.30;;;;;;;15.18;67.09;95218.75;5049793;28;20737;-73
2022/07/20 02:56:02;;;;;;;4.25;1.92;;;;;;;15.16;67.03;95221.84;5049620;28;20204;-73
2022/07/20 02:58:29;;;;;;;4.32;1.27;;;;;;;15.10;67.43;95216.94;5050000;28;20685;-74
2022/07/20 03:00:57;;;;;;;3.40;1.45;;;;;;;15.07;67.34;95228.53;5049793;28;21017;-74
2022/07/20 03:03:24;;;;;;;1.98;1.35;;;;;;;15.04;67.59;95229.22;5049611;28;20285;-74
2022/07/20 03:05:52;;;;;;;3.10;1.70;;;;;;;15.15;66.97;95225.72;5050164;28;20203;-74
2022/07/20 03:08:19;;;;;;;2.65;1.60;;;;;;;15.30;67.03;95226.94;5050022;28;20250;-74
2022/07/20 03:10:46;;;;;;;1.98;1.73;;;;;;;15.36;67.63;95230.22;5049971;28;20810;-74
2022/07/20 03:13:13;;;;;;;1.98;1.40;;;;;;;15.35;67.99;95223.16;5050352;28;20207;-74
2022/07/20 03:15:40;;;;;;;3.05;1.50;;;;;;;15.26;68.18;95231.50;5050365;28;20222;-74
2022/07/20 03:18:06;;;;;;;2.05;1.17;;;;;;;15.44;67.91;95235.59;5050205;28;20238;-74
2022/07/20 03:20:34;;;;;;;1.73;1.30;;;;;;;15.92;66.53;95226.50;5049864;28;20196;-73
2022/07/20 03:23:03;;;;;;;3.35;1.60;;;;;;;16.57;63.83;95229.06;5049458;28;20203;-73
2022/07/20 03:25:31;;;;;;;2.85;1.50;;;;;;;17.38;61.15;95228.38;5049746;28;20263;-74
2022/07/20 03:27:59;;;;;;;5.57;2.13;;;;;;;18.26;58.90;95226.00;5049025;28;20208;-73
2022/07/20 03:30:26;;;;;;;1.90;1.55;;;;;;;19.13;56.51;95219.00;5049654;28;20277;-74
2022/07/20 03:32:54;;;;;;;3.60;1.48;;;;;;;19.84;54.49;95226.38;5049640;28;20199;-74
2022/07/20 03:35:21;;;;;;;2.60;1.65;;;;;;;20.41;52.84;95231.81;5049736;28;20208;-74
2022/07/20 03:37:48;;;;;;;5.68;2.13;;;;;;;21.09;50.82;95223.09;5050102;28;20200;-73
2022/07/20 03:40:16;;;;;;;4.10;1.90;;;;;;;21.75;49.66;95220.47;5050258;28;20207;-74
2022/07/20 03:42:43;;;;;;;3.30;2.28;;;;;;;22.21;47.95;95229.03;5050228;28;20200;-73
2022/07/20 03:45:11;;;;;;;2.60;2.20;;;;;;;22.73;46.52;95218.56;5058090;28;20228;-73
2022/07/20 03:47:38;;;;;;;3.75;2.00;;;;;;;23.44;45.21;95225.00;5079014;28;20203;-74
2022/07/20 03:50:05;;;;;;;2.97;2.25;;;;;;;23.48;44.64;95227.78;5056117;28;20203;-75
2022/07/20 03:52:32;;;;;;;3.53;1.80;;;;;;;24.17;43.44;95213.44;5058103;28;20820;-75
2022/07/20 03:54:59;;;;;;;1.98;1.42;;;;;;;25.05;41.75;95215.81;5067470;28;20199;-75
2022/07/20 03:57:27;;;;;;;2.53;1.95;;;;;;;25.29;41.32;95210.50;5058223;28;20966;-74
2022/07/20 03:59:54;;;;;;;2.05;1.70;;;;;;;25.44;40.53;95221.09;5063230;28;20204;-74
2022/07/20 04:02:21;;;;;;;3.50;2.08;;;;;;;25.54;40.79;95211.09;5061171;28;20199;-74
2022/07/20 04:04:48;;;;;;;7.03;2.70;;;;;;;25.84;40.05;95205.69;5064320;28;20228;-74
2022/07/20 04:07:14;;;;;;;3.83;2.25;;;;;;;25.80;39.20;95209.72;5062432;28;20206;-76
2022/07/20 04:09:50;;;;;;;4.18;2.65;;;;;;;25.96;38.68;95215.50;5059862;28;20331;-74
2022/07/20 04:12:19;;;;;;;7.32;2.65;;;;;;;26.55;37.84;95207.69;5060608;28;20225;-76
2022/07/20 04:14:49;;;;;;;4.78;2.40;;;;;;;27.56;36.45;95208.66;5066184;28;20242;-75
2022/07/20 04:17:17;;;;;;;3.70;2.10;;;;;;;27.48;35.21;95209.16;5067382;28;20306;-71
2022/07/20 04:19:44;;;;;;;3.85;2.20;;;;;;;27.87;35.54;95208.53;5060913;28;20199;-74
2022/07/20 04:22:11;;;;;;;5.30;2.30;;;;;;;28.67;34.30;95214.97;5060153;28;20609;-76
2022/07/20 04:24:38;;;;;;;3.47;2.25;;;;;;;28.04;34.00;95212.97;5064581;28;20682;-74
2022/07/20 04:27:05;;;;;;;5.03;2.35;;;;;;;28.14;34.33;95214.81;5066170;28;20937;-74
2022/07/20 04:29:32;;;;;;;4.75;2.17;;;;;;;28.95;33.45;95206.81;5061016;28;20453;-74
2022/07/20 04:32:01;;;;;;;4.45;2.08;;;;;;;29.84;31.55;95212.28;5059596;28;20605;-75
2022/07/20 04:34:28;;;;;;;4.28;2.00;;;;;;;29.60;32.27;95211.72;5064297;28;20265;-76
2022/07/20 04:36:55;;;;;;;3.08;2.30;;;;;;;30.12;31.84;95214.38;5067922;28;20210;-76
2022/07/20 04:39:22;;;;;;;2.78;2.13;;;;;;;30.57;30.75;95211.56;5072568;28;20487;-74
2022/07/20 04:41:48;;;;;;;4.63;2.53;;;;;;;30.15;30.69;95216.31;5059551;28;20207;-74
2022/07/20 04:44:15;;;;;;;4.25;2.72;;;;;;;30.25;30.08;95215.22;5063277;28;20231;-74
2022/07/20 04:46:42;;;;;;;3.90;2.58;;;;;;;30.35;31.31;95219.72;5067112;28;20285;-74
2022/07/20 04:49:10;;;;;;;2.83;1.92;;;;;;;31.45;29.54;95215.72;5062088;28;20207;-75
2022/07/20 04:51:37;;;;;;;5.93;2.50;;;;;;;31.48;29.75;95225.25;5058945;28;20298;-75
2022/07/20 04:54:05;;;;;;;9.10;3.30;;;;;;;31.09;30.04;95225.25;5062325;28;20227;-75
2022/07/20 04:56:31;;;;;;;6.88;3.03;;;;;;;30.64;30.73;95230.16;5065892;28;20734;-75
2022/07/20 04:58:58;;;;;;;3.60;2.72;;;;;;;30.10;31.20;95230.81;5062698;28;20221;-75
2022/07/20 05:01:26;;;;;;;2.65;2.35;;;;;;;29.96;31.35;95234.75;5059440;28;20206;-75
2022/07/20 05:03:53;;;;;;;3.45;2.22;;;;;;;30.24;31.12;95224.84;5061249;28;20231;-75
2022/07/20 05:06:22;;;;;;;4.53;2.38;;;;;;;31.29;30.00;95233.44;5066245;28;20282;-76
2022/07/20 05:08:48;;;;;;;5.88;2.40;;;;;;;31.90;29.48;95228.69;5062890;28;20203;-75
2022/07/20 05:11:15;;;;;;;2.85;2.33;;;;;;;31.97;29.07;95231.28;5058906;28;20298;-75
2022/07/20 05:13:42;;;;;;;5.72;2.67;;;;;;;31.79;28.75;95235.44;5061230;28;20207;-76
2022/07/20 05:16:10;;;;;;;3.25;2.35;;;;;;;32.08;28.05;95234.50;5065729;28;20274;-77
2022/07/20 05:18:37;;;;;;;5.68;2.67;;;;;;;32.42;27.68;95231.69;5062096;28;20211;-75
2022/07/20 05:21:04;;;;;;;3.28;2.67;;;;;;;31.99;28.12;95248.41;5058821;28;20210;-75
2022/07/20 05:23:32;;;;;;;5.20;2.42;;;;;;;32.60;28.37;95235.91;5059814;28;20211;-76
2022/07/20 05:25:59;;;;;;;4.40;3.53;;;;;;;33.39;26.88;95234.56;5064731;28;20723;-75
2022/07/20 05:28:26;;;;;;;3.03;2.60;;;;;;;33.62;26.50;95231.22;5064048;28;20203;-75
2022/07/20 05:30:53;;;;;;;4.25;2.28;;;;;;;33.52;26.57;95233.22;5053281;28;20208;-75
2022/07/20 05:33:20;;;;;;;5.50;2.30;;;;;;;33.75;26.73;95234.72;5064156;28;20569;-75
2022/07/20 05:35:49;;;;;;;6.03;2.40;;;;;;;34.76;25.53;95232.84;5058651;28;20269;-75
2022/07/20 05:38:18;;;;;;;4.72;2.25;;;;;;;34.12;25.72;95240.44;5070979;28;20256;-75
2022/07/20 05:40:47;;;;;;;3.60;2.63;;;;;;;33.73;26.33;95245.63;5051315;28;20236;-76
2022/07/20 05:43:17;;;;;;;2.65;2.25;;;;;;;34.84;25.46;95228.47;5058482;28;20211;-76
2022/07/20 05:45:45;;;;;;;2.80;2.25;;;;;;;34.55;25.28;95234.56;5063006;28;20278;-76
2022/07/20 05:48:12;;;;;;;5.25;2.70;;;;;;;34.43;25.92;95241.13;5064786;28;20669;-76
2022/07/20 05:50:43;;;;;;;5.18;2.88;;;;;;;34.44;25.16;95239.09;5060492;28;20198;-76
2022/07/20 05:53:11;;;;;;;3.28;2.65;;;;;;;33.22;26.64;95242.41;5055442;28;20261;-76
2022/07/20 05:55:38;;;;;;;3.80;2.60;;;;;;;34.40;25.46;95239.25;5061136;28;21028;-77
2022/07/20 05:58:07;;;;;;;4.32;2.15;;;;;;;33.80;25.87;95245.34;5057596;28;20198;-75
2022/07/20 06:00:35;;;;;;;6.45;2.50;;;;;;;34.61;25.53;95239.53;5061511;28;20608;-76
2022/07/20 06:03:02;;;;;;;4.45;2.35;;;;;;;34.06;26.17;95247.91;5064568;28;20208;-77
2022/07/20 06:05:29;;;;;;;3.63;2.30;;;;;;;34.10;25.85;95243.72;5062020;28;20231;-76
2022/07/20 06:07:56;;;;;;;2.55;2.10;;;;;;;34.73;25.68;95238.59;5057967;28;20254;-76
2022/07/20 06:10:23;;;;;;;3.55;2.50;;;;;;;35.32;24.86;95237.13;5059770;28;20204;-73
2022/07/20 06:12:50;;;;;;;5.90;2.90;;;;;;;33.83;26.31;95250.06;5058134;28;20212;-75
2022/07/20 06:15:19;;;;;;;4.00;2.47;;;;;;;31.12;29.46;95259.19;5061917;28;20280;-75
2022/07/20 06:17:46;;;;;;;3.88;2.55;;;;;;;32.54;28.59;95257.34;5065976;28;20200;-73
2022/07/20 06:20:15;;;;;;;3.60;2.50;;;;;;;33.71;27.41;95250.94;5062463;28;20272;-77
2022/07/20 06:22:43;;;;;;;3.92;2.20;;;;;;;33.92;27.80;95259.75;5051690;28;20200;-74
2022/07/20 06:25:12;;;;;;;3.38;2.33;;;;;;;34.81;25.89;95251.16;5062239;28;20234;-75
2022/07/20 06:27:39;;;;;;;3.38;2.22;;;;;;;35.49;25.65;95248.84;5056973;28;20199;-74
2022/07/20 06:30:08;;;;;;;3.75;2.58;;;;;;;35.00;25.76;95251.88;5058093;28;20257;-73
2022/07/20 06:32:44;;;;;;;2.55;2.20;;;;;;;34.40;25.92;95247.69;5069395;28;20253;-76
2022/07/20 06:35:11;;;;;;;5.40;2.35;;;;;;;34.31;26.27;95241.25;5057018;28;20199;-73
2022/07/20 06:37:39;;;;;;;4.07;2.60;;;;;;;34.76;26.84;95244.09;5060435;28;20207;-73
2022/07/20 06:40:08;;;;;;;2.97;2.20;;;;;;;34.37;25.62;95240.19;5063649;28;20202;-73
2022/07/20 06:42:35;;;;;;;3.10;2.50;;;;;;;32.94;27.46;95244.25;5058359;28;20604;-72
2022/07/20 06:45:04;;;;;;;3.78;2.58;;;;;;;32.92;27.86;95241.16;5056466;28;20246;-74
2022/07/20 06:47:31;;;;;;;2.58;2.10;;;;;;;33.03;28.12;95240.75;5060303;28;21071;-74
2022/07/20 06:49:59;;;;;;;3.47;2.58;;;;;;;31.32;29.85;95240.16;5063661;28;20624;-74
2022/07/20 06:52:27;;;;;;;3.67;2.60;;;;;;;31.49;29.47;95244.41;5061091;28;20210;-74
2022/07/20 06:54:54;;;;;;;4.65;2.40;;;;;;;31.66;30.20;95240.28;5056727;28;20205;-73
2022/07/20 06:57:20;;;;;;;6.57;2.47;;;;;;;32.46;28.42;95231.59;5059772;28;20203;-74
2022/07/20 06:59:49;;;;;;;3.22;2.40;;;;;;;34.01;26.72;95229.66;5063595;28;20257;-74
2022/07/20 07:02:15;;;;;;;3.63;2.30;;;;;;;33.70;27.26;95232.50;5058746;28;20285;-74
2022/07/20 07:04:42;;;;;;;3.17;2.20;;;;;;;34.07;27.35;95227.75;5057783;28;20230;-73
2022/07/20 07:07:10;;;;;;;2.95;2.22;;;;;;;32.20;28.64;95230.91;5056165;28;20257;-74
2022/07/20 07:09:37;;;;;;;5.60;2.88;;;;;;;33.06;28.41;95229.38;5056681;28;20654;-74
2022/07/20 07:12:04;;;;;;;5.65;2.60;;;;;;;33.65;28.05;95223.88;5056722;28;20198;-74
2022/07/20 07:14:31;;;;;;;4.53;2.83;;;;;;;32.01;29.30;95234.72;5059556;28;20751;-75
2022/07/20 07:16:58;;;;;;;4.00;2.65;;;;;;;32.73;28.13;95222.63;5059125;28;20191;-73
2022/07/20 07:19:25;;;;;;;4.97;2.80;;;;;;;31.30;30.22;95231.41;5063100;28;20268;-74
2022/07/20 07:21:51;;;;;;;8.77;3.65;;;;;;;32.10;29.63;95226.41;5057397;28;20215;-74
2022/07/20 07:24:20;;;;;;;4.45;2.65;;;;;;;32.96;27.94;95219.31;5050121;28;20227;-73
2022/07/20 07:26:46;;;;;;;6.82;2.90;;;;;;;33.21;27.92;95212.78;5063026;28;20234;-74
2022/07/20 07:29:14;;;;;;;4.45;2.60;;;;;;;32.12;29.32;95223.91;5056030;28;20248;-74
2022/07/20 07:31:41;;;;;;;3.42;2.72;;;;;;;32.77;28.43;95218.44;5056049;28;20542;-74
2022/07/20 07:34:07;;;;;;;3.40;2.60;;;;;;;32.34;29.95;95219.19;5055892;28;20822;-75
2022/07/20 07:36:34;;;;;;;5.60;2.80;;;;;;;31.71;29.61;95225.69;5060309;28;20272;-75
2022/07/20 07:39:01;;;;;;;3.10;2.30;;;;;;;29.81;32.43;95229.94;5055209;28;20258;-75
2022/07/20 07:41:29;;;;;;;2.85;2.08;;;;;;;30.79;31.48;95225.72;5063375;28;20218;-74
2022/07/20 07:43:56;;;;;;;5.85;2.35;;;;;;;32.07;29.83;95191.66;5056718;28;20767;-74
2022/07/20 07:46:23;;;;;;;3.83;2.70;;;;;;;31.18;30.28;95223.78;5068221;28;20230;-74
2022/07/20 07:48:50;;;;;;;2.38;1.83;;;;;;;29.99;31.44;95219.13;5065887;28;20658;-74
2022/07/20 07:51:17;;;;;;;2.88;2.50;;;;;;;30.54;31.34;95220.06;5068333;28;20213;-74
2022/07/20 07:53:43;;;;;;;3.15;2.40;;;;;;;31.20;29.95;95216.50;5062600;28;20620;-75
2022/07/20 07:56:12;;;;;;;4.30;2.65;;;;;;;31.03;29.92;95215.78;5058593;28;20629;-75
2022/07/20 07:58:40;;;;;;;3.17;2.42;;;;;;;31.36;30.28;95218.41;5060974;28;20211;-77
2022/07/20 08:01:07;;;;;;;4.55;2.38;;;;;;;31.37;29.83;95215.19;5057916;28;20200;-74
2022/07/20 08:03:33;;;;;;;3.92;2.38;;;;;;;31.90;29.62;95209.88;5062711;28;20241;-75
2022/07/20 08:06:01;;;;;;;5.85;2.67;;;;;;;32.23;28.86;95196.34;5059303;28;20989;-74
2022/07/20 08:08:28;;;;;;;4.20;2.58;;;;;;;31.46;30.60;95206.09;5063168;28;20212;-75
2022/07/20 08:10:54;;;;;;;3.28;2.33;;;;;;;31.60;29.20;95205.63;5065966;28;20206;-77
2022/07/20 08:13:21;;;;;;;4.05;2.20;;;;;;;30.56;29.83;95201.59;5053768;28;20212;-75
2022/07/20 08:15:49;;;;;;;2.45;2.00;;;;;;;31.31;29.14;95204.97;5066519;28;20264;-75
2022/07/20 08:18:16;;;;;;;7.47;1.85;;;;;;;31.54;27.09;95199.03;5063265;28;20370;-75
2022/07/20 08:20:43;;;;;;;3.72;2.10;;;;;;;31.15;29.08;95202.31;5057522;28;20207;-74
2022/07/20 08:23:10;;;;;;;2.85;1.90;;;;;;;31.02;27.73;95200.25;5063148;28;20226;-74
2022/07/20 08:25:37;;;;;;;3.58;2.17;;;;;;;32.32;27.16;95193.59;5059765;28;20253;-75
2022/07/20 08:28:12;;;;;;;6.00;1.95;;;;;;;31.69;27.44;95185.38;5063368;28;20197;-74
2022/07/20 08:30:40;;;;;;;3.22;1.70;;;;;;;31.71;27.57;95197.66;5067144;28;20204;-77
2022/07/20 08:33:08;;;;;;;2.85;1.80;;;;;;;31.68;25.80;95190.19;5064289;28;20196;-74
2022/07/20 08:35:36;;;;;;;2.65;1.80;;;;;;;30.14;28.05;95206.34;5059354;28;20245;-74
2022/07/20 08:38:04;;;;;;;2.22;1.77;;;;;;;29.84;28.82;95201.13;5061246;28;20272;-74
2022/07/20 08:40:31;;;;;;;2.65;1.70;;;;;;;30.39;28.29;95198.06;5066938;28;20211;-75
2022/07/20 08:42:58;;;;;;;2.33;1.60;;;;;;;30.71;27.42;95199.19;5057970;28;20200;-75
2022/07/20 08:45:25;;;;;;;2.22;1.60;;;;;;;30.36;27.27;95193.34;5066291;28;20478;-74
2022/07/20 08:47:52;;;;;;;4.70;2.00;;;;;;;29.24;29.12;95200.59;5052408;28;20204;-75
2022/07/20 08:50:25;;;;;;;4.90;2.30;;;;;;;30.03;30.05;95186.28;5066501;28;20211;-74
2022/07/20 08:52:53;;;;;;;3.85;1.58;;;;;;;29.70;27.62;95197.47;5065992;28;20199;-75
2022/07/20 08:55:20;;;;;;;3.00;1.30;;;;;;;28.83;28.77;95203.91;5060099;28;20250;-75
2022/07/20 08:57:47;;;;;;;7.25;1.92;;;;;;;28.70;29.34;95195.38;5059400;28;20200;-74
2022/07/20 09:00:16;;;;;;;1.90;1.60;;;;;;;28.96;28.58;95188.88;5065550;28;20685;-74
2022/07/20 09:02:51;;;;;;;2.85;1.60;;;;;;;29.12;29.07;95185.28;5066045;28;20199;-74
2022/07/20 09:05:20;;;;;;;3.28;1.80;;;;;;;29.30;28.81;95179.28;5061346;28;20233;-73
2022/07/20 09:07:51;;;;;;;2.30;1.58;;;;;;;29.13;29.77;95172.13;5058823;28;20200;-74
2022/07/20 09:10:19;;;;;;;1.95;1.40;;;;;;;28.85;29.27;95177.13;5062265;28;20561;-76
2022/07/20 09:12:51;;;;;;;1.85;1.60;;;;;;;29.20;30.27;95185.94;5065765;28;20667;-75
2022/07/20 09:15:47;;;;;;;3.08;1.40;;;;;;;28.71;29.99;95188.56;5063186;28;20305;-76
2022/07/20 09:18:17;;;;;;;3.03;1.50;;;;;;;28.58;30.02;95179.28;5027886;28;20284;-75
2022/07/20 09:20:46;;;;;;;2.22;1.40;;;;;;;27.64;30.97;95189.03;5065365;28;20661;-79
2022/07/20 09:23:17;;;;;;;3.83;1.63;;;;;;;27.70;31.22;95187.34;5061228;28;20713;-73
2022/07/20 09:25:55;;;;;;;1.88;1.38;;;;;;;28.19;31.07;95180.88;5058552;28;20231;-74
2022/07/20 09:28:23;;;;;;;2.00;1.48;;;;;;;28.39;32.46;95174.53;5060458;28;20241;-76
2022/07/20 09:30:51;;;;;;;5.72;1.60;;;;;;;28.30;30.53;95167.50;5065245;28;20716;-74
2022/07/20 09:33:27;;;;;;;2.17;1.73;;;;;;;28.70;29.42;95170.25;5052142;28;20231;-73
2022/07/20 09:35:54;;;;;;;2.33;1.63;;;;;;;28.46;30.48;95171.59;5065635;28;20221;-76
2022/07/20 09:38:30;;;;;;;2.38;1.38;;;;;;;28.73;29.64;95172.19;5066319;28;20207;-78
2022/07/20 09:41:01;;;;;;;2.10;1.40;;;;;;;28.57;29.88;95169.34;5071438;28;20248;-72
2022/07/20 09:43:30;;;;;;;1.60;1.33;;;;;;;28.64;30.12;95160.84;5058249;28;20302;-71
2022/07/20 09:46:10;;;;;;;3.72;1.50;;;;;;;29.17;30.53;95150.50;5061871;28;20247;-75
2022/07/20 09:48:41;;;;;;;3.13;1.50;;;;;;;29.59;28.23;95149.47;5064429;28;20999;-75
2022/07/20 09:51:21;;;;;;;1.33;1.23;;;;;;;30.09;28.23;95145.38;5064250;28;20622;-73
2022/07/20 09:53:51;;;;;;;2.60;1.55;;;;;;;29.86;28.85;95148.38;5051634;28;20203;-71
2022/07/20 09:56:19;;;;;;;1.63;1.30;;;;;;;29.82;28.11;95148.47;5051405;28;20219;-73
2022/07/20 09:58:47;;;;;;;1.92;1.50;;;;;;;29.29;28.22;95150.59;5051158;28;20254;-73
2022/07/20 10:01:18;;;;;;;2.05;1.65;;;;;;;28.75;28.19;95150.25;5051566;28;20624;-76
2022/07/20 10:03:47;;;;;;;3.85;1.42;;;;;;;28.68;28.88;95156.00;5051300;28;20670;-71
2022/07/20 10:06:15;;;;;;;1.42;1.30;;;;;;;28.72;29.30;95145.53;5051011;28;20314;-74
2022/07/20 10:08:42;;;;;;;4.18;1.60;;;;;;;29.28;28.51;95125.91;5050607;28;20203;-72
2022/07/20 10:11:11;;;;;;;1.20;1.10;;;;;;;29.80;28.88;95127.78;5051225;28;20269;-75
2022/07/20 10:13:41;;;;;;;1.60;1.50;;;;;;;29.21;28.89;95140.06;5051249;28;20318;-69
2022/07/20 10:16:17;;;;;;;1.30;1.20;;;;;;;28.47;28.79;95128.56;5051605;28;20227;-70
2022/07/20 10:18:45;;;;;;;1.55;1.30;;;;;;;28.83;30.06;95123.81;5050533;28;20191;-74
2022/07/20 10:21:47;;;;;;;2.83;1.55;;;;;;;29.83;28.56;95121.31;5049954;28;20200;-73
2022/07/20 10:24:19;;;;;;;2.47;1.48;;;;;;;30.21;29.49;95115.88;5005616;28;20284;-73
2022/07/20 10:26:49;;;;;;;1.85;1.30;;;;;;;30.12;27.86;95121.34;5008656;28;20310;-73
2022/07/20 10:29:27;;;;;;;1.80;1.27;;;;;;;29.10;28.63;95118.00;5034974;28;20246;-72
2022/07/20 10:31:56;;;;;;;4.18;1.35;;;;;;;29.04;29.53;95110.56;5063988;28;20213;-72
2022/07/20 10:34:37;;;;;;;1.77;1.40;;;;;;;29.24;29.36;95108.47;5058320;28;20206;-72
2022/07/20 10:37:24;;;;;;;2.83;1.40;;;;;;;29.50;28.49;95106.66;5058905;28;20211;-73
2022/07/20 10:39:52;;;;;;;1.35;1.23;;;;;;;29.42;29.25;95096.88;5056836;28;20196;-74
2022/07/20 10:42:30;;;;;;;1.60;1.50;;;;;;;29.60;29.03;95098.00;5063486;28;20208;-72
2022/07/20 10:45:34;;;;;;;2.47;1.33;;;;;;;29.87;29.26;95091.28;5063335;28;20197;-72
2022/07/20 10:48:20;;;;;;;1.80;1.50;;;;;;;30.50;28.64;95082.28;5050777;28;20735;-75
2022/07/20 10:50:50;;;;;;;2.63;1.50;;;;;;;30.71;28.07;95071.28;5060203;28;20286;-71
2022/07/20 10:53:32;;;;;;;2.67;1.75;;;;;;;30.16;28.04;95078.09;5063929;28;20200;-75
2022/07/20 10:56:00;;;;;;;1.38;1.27;;;;;;;30.23;27.92;95083.47;5049777;28;20821;-75
2022/07/20 10:58:31;;;;;;;1.65;1.38;;;;;;;30.59;27.91;95082.47;5063457;28;20723;-75
2022/07/20 11:01:00;;;;;;;1.95;1.33;;;;;;;30.97;26.95;95066.44;5050601;28;20254;-76
2022/07/20 11:03:30;;;;;;;2.53;1.48;;;;;;;31.65;26.56;95067.81;5064129;28;20204;-74
2022/07/20 11:06:03;;;;;;;2.42;1.45;;;;;;;31.85;25.20;95063.91;5063254;28;20238;-74
2022/07/20 11:08:30;;;;;;;1.65;1.40;;;;;;;32.05;25.02;95067.19;5057678;28;20298;-75
2022/07/20 11:10:57;;;;;;;5.15;1.65;;;;;;;32.27;25.63;95056.75;5056750;28;20199;-74
2022/07/20 11:13:24;;;;;;;1.52;1.30;;;;;;;31.68;26.60;95066.91;5061961;28;20281;-73
2022/07/20 11:15:57;;;;;;;2.78;1.45;;;;;;;30.65;27.49;95063.88;5063464;28;20734;-72
2022/07/20 11:18:26;;;;;;;1.30;1.20;;;;;;;30.00;28.03;95070.56;5059256;28;20196;-73
2022/07/20 11:20:55;;;;;;;1.65;1.50;;;;;;;29.67;28.73;95064.25;5055975;28;20237;-77
2022/07/20 11:23:25;;;;;;;1.38;1.27;;;;;;;30.51;28.49;95055.91;5059984;28;20214;-74
2022/07/20 11:25:54;;;;;;;1.60;1.50;;;;;;;31.17;27.53;95043.03;5054110;28;20246;-74
2022/07/20 11:28:23;;;;;;;1.42;1.25;;;;;;;31.26;27.64;95040.34;5058858;28;20230;-74
2022/07/20 11:30:53;;;;;;;1.60;1.50;;;;;;;30.82;27.65;95051.34;5054713;28;20264;-75
2022/07/20 11:33:27;;;;;;;1.30;1.20;;;;;;;30.39;28.08;95058.22;5058471;28;20214;-74
2022/07/20 11:35:56;;;;;;;2.45;1.50;;;;;;;30.48;28.16;95045.63;5056493;28;20248;-72
2022/07/20 11:38:24;;;;;;;2.95;1.40;;;;;;;30.69;28.51;95036.56;5069135;28;20682;-75
2022/07/20 11:41:01;;;;;;;2.33;1.70;;;;;;;31.26;27.44;95034.75;5057202;28;20701;-74
2022/07/20 11:43:29;;;;;;;1.60;1.42;;;;;;;31.58;26.36;95039.22;5055694;28;20237;-75